createdAt,value
2022-12-03T00:02:22.099Z,3.60
2022-12-03T00:04:49.006Z,3.72
2022-12-03T00:07:15.799Z,3.50
2022-12-03T00:09:42.905Z,3.42
2022-12-03T00:12:09.773Z,3.17
2022-12-03T00:14:40.052Z,4.45
2022-12-03T00:17:11.097Z,4.40
2022-12-03T00:19:37.909Z,3.90
2022-12-03T00:22:04.663Z,3.63
2022-12-03T00:24:31.468Z,4.13
2022-12-03T00:26:58.357Z,3.70
2022-12-03T00:29:25.136Z,3.78
2022-12-03T00:31:51.994Z,4.65
2022-12-03T00:34:18.904Z,3.58
2022-12-03T00:36:45.688Z,4.03
2022-12-03T00:39:12.481Z,4.03
2022-12-03T00:41:39.235Z,3.25
2022-12-03T00:44:06.061Z,2.80
2022-12-03T00:46:32.884Z,2.78
2022-12-03T00:48:59.748Z,3.47
2022-12-03T00:51:26.560Z,4.60
2022-12-03T00:53:53.379Z,4.80
2022-12-03T00:56:20.150Z,5.28
2022-12-03T00:58:46.931Z,5.03
2022-12-03T01:01:13.852Z,3.88
2022-12-03T01:03:40.697Z,4.60
2022-12-03T01:06:07.541Z,4.63
2022-12-03T01:08:34.478Z,4.43
2022-12-03T01:11:02.016Z,5.50
2022-12-03T01:13:28.902Z,4.47
2022-12-03T01:15:55.703Z,4.70
2022-12-03T01:18:22.670Z,4.78
2022-12-03T01:20:49.472Z,5.13
2022-12-03T01:23:16.292Z,4.28
2022-12-03T01:25:43.121Z,5.68
2022-12-03T01:28:09.944Z,5.03
2022-12-03T01:30:56.811Z,4.47
2022-12-03T01:33:23.747Z,4.15
2022-12-03T01:35:50.545Z,4.10
2022-12-03T01:38:17.336Z,5.57
2022-12-03T01:40:44.171Z,5.90
2022-12-03T01:43:11.032Z,5.30
2022-12-03T01:45:37.896Z,6.30
2022-12-03T01:48:04.776Z,6.55
2022-12-03T01:50:33.291Z,5.22
2022-12-03T01:53:02.414Z,4.45
2022-12-03T01:55:29.814Z,4.90
2022-12-03T01:58:00.850Z,6.38
2022-12-03T02:00:28.582Z,5.82
2022-12-03T02:02:59.834Z,6.07
2022-12-03T02:05:32.104Z,5.50
2022-12-03T02:07:59.610Z,6.28
2022-12-03T02:10:32.600Z,5.80
2022-12-03T02:13:08.410Z,6.05
2022-12-03T02:15:39.293Z,4.95
2022-12-03T02:18:08.234Z,5.00
2022-12-03T02:20:42.667Z,5.40
2022-12-03T02:24:02.872Z,5.85
2022-12-03T02:26:29.864Z,5.55
2022-12-03T02:28:57.293Z,4.53
2022-12-03T02:31:24.470Z,4.82
2022-12-03T02:33:51.505Z,5.93
2022-12-03T02:36:19.131Z,5.88
2022-12-03T02:38:48.264Z,5.10
2022-12-03T02:41:37.728Z,5.70
2022-12-03T02:44:07.462Z,5.18
2022-12-03T02:46:34.858Z,6.28
2022-12-03T02:49:03.286Z,6.63
2022-12-03T02:51:31.329Z,6.60
2022-12-03T02:53:58.770Z,6.15
2022-12-03T02:56:29.963Z,4.88
2022-12-03T02:58:59.405Z,4.22
2022-12-03T03:01:26.860Z,3.75
2022-12-03T03:03:54.522Z,3.70
2022-12-03T03:06:21.961Z,4.55
2022-12-03T03:08:48.906Z,3.70
2022-12-03T03:11:15.850Z,4.65
2022-12-03T03:13:42.979Z,5.00
2022-12-03T03:16:10.157Z,4.80
2022-12-03T03:18:37.431Z,4.78
2022-12-03T03:21:04.795Z,5.25
2022-12-03T03:23:31.905Z,6.63
2022-12-03T03:26:01.721Z,6.18
2022-12-03T03:28:29.825Z,4.63
2022-12-03T03:30:58.715Z,4.35
2022-12-03T03:33:25.590Z,6.43
2022-12-03T03:35:53.425Z,5.25
2022-12-03T03:38:22.256Z,5.72
2022-12-03T03:40:51.879Z,5.80
2022-12-03T03:43:23.990Z,5.88
2022-12-03T03:45:52.331Z,5.35
2022-12-03T03:48:20.427Z,6.18
2022-12-03T03:50:47.806Z,6.32
2022-12-03T03:53:15.692Z,5.80
2022-12-03T03:55:42.834Z,5.85
2022-12-03T03:58:09.839Z,4.45
2022-12-03T04:00:36.930Z,5.38
2022-12-03T04:03:04.820Z,6.15
2022-12-03T04:05:31.981Z,7.00
2022-12-03T04:07:59.498Z,7.05
2022-12-03T04:10:45.126Z,6.85
2022-12-03T04:13:11.977Z,6.43
2022-12-03T04:15:38.821Z,5.90
2022-12-03T04:18:24.704Z,4.55
2022-12-03T04:20:51.516Z,4.32
2022-12-03T04:23:18.272Z,4.55
2022-12-03T04:26:03.654Z,5.47
2022-12-03T04:28:49.184Z,6.18
2022-12-03T04:31:34.767Z,5.35
2022-12-03T04:34:20.245Z,4.50
2022-12-03T04:36:47.282Z,4.90
2022-12-03T04:39:14.095Z,4.28
2022-12-03T04:41:40.979Z,3.80
2022-12-03T04:44:26.773Z,3.83
2022-12-03T04:46:53.563Z,3.03
2022-12-03T04:49:20.346Z,4.20
2022-12-03T04:51:47.118Z,4.28
2022-12-03T04:54:13.908Z,3.67
2022-12-03T04:56:40.776Z,4.00
2022-12-03T04:59:11.390Z,5.60
2022-12-03T05:01:43.046Z,4.82
2022-12-03T05:04:10.318Z,5.15
2022-12-03T05:06:37.159Z,4.85
2022-12-03T05:09:04.198Z,3.85
2022-12-03T05:11:31.109Z,3.55
2022-12-03T05:13:57.962Z,4.35
2022-12-03T05:16:24.891Z,5.35
2022-12-03T05:18:51.690Z,4.95
2022-12-03T05:21:18.730Z,5.43
2022-12-03T05:23:45.534Z,5.30
2022-12-03T05:26:12.321Z,4.85
2022-12-03T05:28:39.200Z,4.75
2022-12-03T05:31:06.345Z,4.50
2022-12-03T05:33:33.301Z,4.20
2022-12-03T05:36:00.235Z,3.70
2022-12-03T05:38:27.326Z,3.75
2022-12-03T05:40:54.263Z,3.17
2022-12-03T05:43:21.027Z,4.70
2022-12-03T05:45:47.937Z,4.95
2022-12-03T05:48:16.520Z,6.10
2022-12-03T05:50:45.014Z,6.57
2022-12-03T05:53:12.577Z,6.07
2022-12-03T05:55:39.555Z,5.63
2022-12-03T05:58:06.527Z,6.57
2022-12-03T06:00:42.324Z,5.43
2022-12-03T06:03:10.537Z,6.03
2022-12-03T06:05:37.642Z,5.65
2022-12-03T06:08:04.719Z,5.95
2022-12-03T06:10:32.547Z,6.40
2022-12-03T06:12:59.792Z,5.57
2022-12-03T06:15:26.969Z,6.10
2022-12-03T06:17:54.139Z,5.60
2022-12-03T06:20:23.364Z,5.35
2022-12-03T06:22:50.595Z,5.72
2022-12-03T06:25:18.166Z,4.35
2022-12-03T06:27:45.044Z,3.55
2022-12-03T06:30:13.876Z,3.05
2022-12-03T06:32:40.762Z,3.70
2022-12-03T06:35:07.860Z,3.47
2022-12-03T06:37:34.712Z,3.05
2022-12-03T06:40:01.729Z,3.25
2022-12-03T06:42:28.510Z,3.40
2022-12-03T06:44:55.768Z,2.58
2022-12-03T06:47:22.853Z,2.65
2022-12-03T06:49:49.652Z,3.35
2022-12-03T06:52:16.906Z,4.30
2022-12-03T06:54:43.761Z,4.63
2022-12-03T06:57:10.562Z,4.45
2022-12-03T06:59:38.029Z,3.90
2022-12-03T07:02:05.472Z,2.78
2022-12-03T07:04:32.369Z,3.30
2022-12-03T07:06:59.307Z,3.10
2022-12-03T07:09:26.164Z,3.83
2022-12-03T07:11:53.124Z,4.57
2022-12-03T07:14:20.235Z,4.60
2022-12-03T07:16:47.839Z,4.45
2022-12-03T07:19:14.998Z,3.67
2022-12-03T07:21:42.057Z,4.80
2022-12-03T07:24:09.276Z,4.05
2022-12-03T07:26:36.354Z,3.92
2022-12-03T07:29:03.244Z,3.85
2022-12-03T07:31:30.180Z,3.40
2022-12-03T07:33:57.048Z,3.80
2022-12-03T07:36:23.851Z,3.20
2022-12-03T07:38:50.764Z,3.00
2022-12-03T07:41:17.545Z,3.17
2022-12-03T07:43:45.276Z,3.08
2022-12-03T07:46:12.193Z,3.30
2022-12-03T07:48:39.128Z,4.63
2022-12-03T07:51:06.124Z,4.22
2022-12-03T07:53:32.941Z,4.57
2022-12-03T07:55:59.703Z,4.28
2022-12-03T07:58:26.661Z,5.13
2022-12-03T08:00:53.533Z,5.07
2022-12-03T08:03:20.615Z,5.13
2022-12-03T08:05:47.432Z,3.65
2022-12-03T08:08:14.612Z,4.25
2022-12-03T08:10:42.061Z,3.28
2022-12-03T08:13:15.141Z,4.70
2022-12-03T08:15:42.327Z,4.10
2022-12-03T08:18:18.018Z,3.53
2022-12-03T08:20:48.132Z,3.70
2022-12-03T08:23:23.617Z,3.65
2022-12-03T08:25:51.955Z,4.18
2022-12-03T08:28:21.864Z,4.28
2022-12-03T08:31:18.508Z,4.35
2022-12-03T08:33:46.916Z,4.45
2022-12-03T08:36:20.997Z,5.35
2022-12-03T08:39:05.433Z,4.90
2022-12-03T08:41:51.016Z,5.10
2022-12-03T08:44:26.033Z,4.85
2022-12-03T08:47:10.340Z,4.93
2022-12-03T08:49:37.677Z,4.32
2022-12-03T08:52:21.335Z,3.97
2022-12-03T08:54:57.942Z,4.22
2022-12-03T08:57:33.145Z,4.80
2022-12-03T09:00:22.961Z,4.78
2022-12-03T09:03:01.101Z,4.68
2022-12-03T09:05:32.494Z,4.80
2022-12-03T09:07:59.522Z,5.15
2022-12-03T09:10:26.468Z,5.72
2022-12-03T09:12:53.253Z,5.28
2022-12-03T09:15:20.147Z,5.18
2022-12-03T09:17:47.177Z,5.75
2022-12-03T09:20:14.192Z,5.85
2022-12-03T09:22:41.071Z,6.75
2022-12-03T09:25:08.281Z,6.50
2022-12-03T09:27:35.120Z,6.43
2022-12-03T09:30:02.234Z,6.10
2022-12-03T09:32:29.136Z,5.90
2022-12-03T09:34:56.381Z,5.47
2022-12-03T09:37:23.387Z,5.45
2022-12-03T09:39:50.185Z,5.50
2022-12-03T09:42:17.451Z,5.15
2022-12-03T09:44:44.495Z,6.45
2022-12-03T09:47:11.665Z,6.60
2022-12-03T09:49:39.529Z,5.55
2022-12-03T09:52:07.380Z,5.43
2022-12-03T09:54:34.532Z,5.75
2022-12-03T09:57:03.717Z,5.05
2022-12-03T09:59:33.269Z,4.40
2022-12-03T10:02:02.021Z,4.30
2022-12-03T10:04:29.740Z,4.38
2022-12-03T10:06:58.196Z,4.07
2022-12-03T10:09:28.092Z,5.22
2022-12-03T10:11:59.900Z,5.60
2022-12-03T10:14:27.607Z,4.80
2022-12-03T10:16:54.780Z,6.10
2022-12-03T10:19:33.983Z,6.32
2022-12-03T10:22:00.893Z,5.57
2022-12-03T10:24:33.806Z,6.75
2022-12-03T10:27:24.975Z,5.10
2022-12-03T10:30:03.925Z,6.45
2022-12-03T10:32:45.484Z,5.55
2022-12-03T10:35:38.161Z,5.80
2022-12-03T10:38:07.307Z,4.88
2022-12-03T10:40:36.884Z,6.78
2022-12-03T10:43:24.974Z,6.28
2022-12-03T10:46:11.269Z,5.70
2022-12-03T10:48:38.701Z,7.30
2022-12-03T10:51:13.460Z,6.65
2022-12-03T10:53:41.219Z,6.10
2022-12-03T10:56:13.773Z,4.60
2022-12-03T10:58:41.047Z,4.90
2022-12-03T11:01:19.070Z,4.93
2022-12-03T11:03:46.421Z,6.53
2022-12-03T11:06:20.012Z,8.18
2022-12-03T11:08:56.305Z,9.57
2022-12-03T11:11:27.165Z,7.88
2022-12-03T11:14:03.947Z,7.82
2022-12-03T11:16:39.895Z,7.95
2022-12-03T11:19:12.571Z,7.80
2022-12-03T11:22:07.113Z,8.43
2022-12-03T11:24:36.620Z,7.20
2022-12-03T11:27:03.585Z,6.82
2022-12-03T11:29:54.149Z,6.32
2022-12-03T11:33:00.707Z,6.90
2022-12-03T11:35:36.563Z,6.65
2022-12-03T11:38:37.636Z,8.40
2022-12-03T11:41:28.177Z,7.75
2022-12-03T11:43:57.664Z,7.15
2022-12-03T11:46:36.908Z,7.25
2022-12-03T11:49:29.885Z,8.23
2022-12-03T11:51:59.020Z,6.72
2022-12-03T11:54:26.091Z,8.18
2022-12-03T11:56:54.204Z,9.07
2022-12-03T11:59:21.082Z,7.13
2022-12-03T12:01:47.980Z,7.13
2022-12-03T12:04:37.770Z,6.68
2022-12-03T12:07:04.860Z,6.93
2022-12-03T12:09:52.020Z,8.55
2022-12-03T12:12:38.408Z,7.10
2022-12-03T12:15:34.350Z,8.38
2022-12-03T12:18:38.883Z,8.45
2022-12-03T12:21:43.168Z,6.45
2022-12-03T12:24:43.128Z,6.47
2022-12-03T12:27:10.876Z,6.80
2022-12-03T12:29:40.483Z,7.50
2022-12-03T12:32:13.496Z,9.90
2022-12-03T12:34:42.339Z,9.35
2022-12-03T12:37:47.360Z,7.45
2022-12-03T12:40:17.680Z,8.15
2022-12-03T12:42:53.112Z,9.48
2022-12-03T12:45:22.822Z,10.02
2022-12-03T12:48:20.270Z,11.10
2022-12-03T12:50:50.635Z,8.20
2022-12-03T12:53:30.836Z,7.63
2022-12-03T12:56:06.695Z,7.45
2022-12-03T12:58:34.107Z,6.95
2022-12-03T13:01:05.871Z,6.93
2022-12-03T13:03:34.916Z,7.28
2022-12-03T13:06:02.611Z,7.10
2022-12-03T13:08:38.491Z,6.65
2022-12-03T13:11:05.981Z,7.32
2022-12-03T13:13:43.612Z,7.72
2022-12-03T13:16:20.702Z,7.80
2022-12-03T13:18:49.903Z,7.65
2022-12-03T13:21:22.185Z,6.85
2022-12-03T13:23:53.257Z,5.88
2022-12-03T13:26:38.653Z,5.47
2022-12-03T13:29:13.430Z,9.00
2022-12-03T13:31:44.194Z,8.02
2022-12-03T13:34:21.831Z,7.65
2022-12-03T13:36:55.319Z,8.77
2022-12-03T13:39:31.568Z,7.10
2022-12-03T13:42:38.081Z,6.65
2022-12-03T13:45:13.794Z,8.77
2022-12-03T13:47:49.125Z,10.30
2022-12-03T13:50:34.297Z,8.93
2022-12-03T13:53:29.355Z,8.05
2022-12-03T13:56:16.539Z,8.35
2022-12-03T13:58:43.430Z,8.70
2022-12-03T14:01:10.215Z,9.52
2022-12-03T14:03:37.289Z,8.73
2022-12-03T14:06:04.304Z,7.88
2022-12-03T14:08:31.141Z,7.30
2022-12-03T14:11:00.432Z,6.63
2022-12-03T14:13:27.744Z,6.32
2022-12-03T14:15:54.605Z,6.15
2022-12-03T14:18:21.658Z,7.07
2022-12-03T14:20:48.554Z,9.38
2022-12-03T14:23:15.848Z,10.15
2022-12-03T14:25:44.026Z,8.60
2022-12-03T14:28:11.219Z,9.35
2022-12-03T14:30:38.227Z,7.50
2022-12-03T14:33:05.111Z,7.50
2022-12-03T14:35:31.948Z,8.25
2022-12-03T14:37:58.756Z,9.65
2022-12-03T14:40:25.866Z,9.20
2022-12-03T14:42:52.807Z,10.48
2022-12-03T14:45:20.811Z,10.60
2022-12-03T14:47:47.660Z,10.18
2022-12-03T14:50:14.751Z,10.18
2022-12-03T14:52:41.928Z,9.93
2022-12-03T14:55:09.277Z,9.88
2022-12-03T14:57:36.009Z,9.23
2022-12-03T15:00:02.879Z,9.88
2022-12-03T15:02:30.414Z,11.55
2022-12-03T15:04:57.674Z,9.93
2022-12-03T15:07:24.444Z,8.23
2022-12-03T15:09:51.293Z,8.40
2022-12-03T15:12:18.294Z,6.65
2022-12-03T15:14:45.052Z,8.40
2022-12-03T15:17:11.922Z,8.15
2022-12-03T15:19:38.731Z,8.88
2022-12-03T15:22:05.541Z,9.93
2022-12-03T15:24:32.615Z,9.48
2022-12-03T15:26:59.720Z,9.23
2022-12-03T15:29:26.616Z,8.23
2022-12-03T15:31:53.477Z,9.23
2022-12-03T15:34:22.791Z,8.20
2022-12-03T15:36:50.282Z,10.00
2022-12-03T15:39:17.068Z,8.93
2022-12-03T15:41:43.869Z,7.68
2022-12-03T15:44:10.627Z,7.55
2022-12-03T15:46:37.626Z,7.35
2022-12-03T15:49:04.458Z,8.13
2022-12-03T15:51:31.539Z,8.00
2022-12-03T15:53:58.378Z,7.15
2022-12-03T15:56:25.141Z,7.45
2022-12-03T15:58:53.518Z,7.82
2022-12-03T16:01:20.358Z,7.65
2022-12-03T16:03:47.225Z,9.43
2022-12-03T16:06:14.915Z,10.77
2022-12-03T16:08:41.816Z,7.97
2022-12-03T16:11:08.675Z,10.77
2022-12-03T16:13:35.563Z,9.27
2022-12-03T16:16:02.499Z,10.00
2022-12-03T16:18:29.401Z,9.23
2022-12-03T16:20:56.202Z,10.02
2022-12-03T16:23:23.087Z,9.05
2022-12-03T16:25:49.866Z,10.93
2022-12-03T16:28:16.829Z,10.13
2022-12-03T16:30:43.778Z,10.60
2022-12-03T16:33:10.594Z,9.63
2022-12-03T16:35:37.471Z,9.68
2022-12-03T16:38:04.409Z,10.20
2022-12-03T16:40:31.193Z,9.95
2022-12-03T16:42:58.066Z,9.93
2022-12-03T16:45:50.956Z,8.52
2022-12-03T16:48:18.772Z,8.27
2022-12-03T16:50:45.754Z,7.75
2022-12-03T16:53:13.239Z,7.45
2022-12-03T16:55:40.338Z,7.95
2022-12-03T16:58:07.273Z,9.27
2022-12-03T17:00:34.194Z,7.97
2022-12-03T17:03:01.189Z,7.55
2022-12-03T17:05:28.083Z,9.18
2022-12-03T17:07:55.052Z,8.70
2022-12-03T17:10:21.940Z,9.70
2022-12-03T17:13:08.671Z,8.80
2022-12-03T17:15:36.194Z,9.80
2022-12-03T17:18:06.281Z,9.85
2022-12-03T17:20:48.307Z,9.63
2022-12-03T17:23:15.081Z,9.68
2022-12-03T17:25:41.897Z,10.05
2022-12-03T17:28:08.722Z,8.88
2022-12-03T17:30:35.520Z,8.80
2022-12-03T17:33:02.544Z,9.70
2022-12-03T17:35:29.541Z,9.60
2022-12-03T17:37:56.474Z,9.77
2022-12-03T17:40:23.621Z,9.35
2022-12-03T17:42:50.522Z,9.82
2022-12-03T17:45:17.591Z,10.43
2022-12-03T17:47:44.341Z,8.95
2022-12-03T17:50:11.404Z,8.57
2022-12-03T17:52:38.494Z,9.82
2022-12-03T17:55:21.283Z,9.10
2022-12-03T17:57:52.731Z,8.65
2022-12-03T18:00:19.738Z,8.85
2022-12-03T18:02:46.536Z,7.85
2022-12-03T18:05:14.168Z,6.50
2022-12-03T18:07:41.097Z,7.90
2022-12-03T18:10:08.473Z,8.77
2022-12-03T18:12:36.031Z,8.68
2022-12-03T18:15:03.643Z,9.13
2022-12-03T18:17:30.415Z,9.05
2022-12-03T18:19:57.822Z,9.07
2022-12-03T18:22:25.855Z,7.68
2022-12-03T18:24:52.797Z,7.88
2022-12-03T18:27:22.791Z,8.60
2022-12-03T18:29:49.829Z,9.18
2022-12-03T18:32:28.334Z,8.95
2022-12-03T18:34:57.149Z,9.52
2022-12-03T18:37:27.098Z,9.05
2022-12-03T18:39:54.657Z,10.88
2022-12-03T18:42:22.993Z,9.23
2022-12-03T18:44:51.828Z,10.18
2022-12-03T18:47:21.198Z,8.88
2022-12-03T18:49:48.839Z,8.50
2022-12-03T18:52:18.421Z,9.15
2022-12-03T18:54:46.424Z,9.43
2022-12-03T18:57:13.545Z,10.13
2022-12-03T18:59:40.481Z,10.13
2022-12-03T19:02:07.982Z,8.60
2022-12-03T19:04:34.889Z,8.60
2022-12-03T19:07:03.667Z,9.45
2022-12-03T19:09:30.602Z,7.63
2022-12-03T19:11:57.749Z,8.85
2022-12-03T19:14:24.700Z,9.05
2022-12-03T19:16:52.085Z,8.90
2022-12-03T19:19:22.152Z,9.55
2022-12-03T19:21:48.982Z,10.13
2022-12-03T19:24:24.485Z,10.40
2022-12-03T19:26:54.740Z,10.38
2022-12-03T19:29:23.216Z,9.38
2022-12-03T19:31:53.471Z,8.98
2022-12-03T19:34:20.666Z,9.48
2022-12-03T19:36:48.141Z,9.60
2022-12-03T19:39:15.446Z,10.15
2022-12-03T19:41:43.849Z,9.48
2022-12-03T19:44:21.329Z,8.38
2022-12-03T19:46:50.234Z,7.72
2022-12-03T19:49:21.281Z,9.00
2022-12-03T19:51:48.474Z,8.32
2022-12-03T19:54:16.410Z,7.65
2022-12-03T19:56:44.306Z,8.98
2022-12-03T19:59:14.704Z,8.43
2022-12-03T20:01:43.471Z,6.55
2022-12-03T20:04:12.076Z,9.20
2022-12-03T20:06:39.430Z,8.32
2022-12-03T20:09:12.062Z,8.02
2022-12-03T20:11:41.047Z,7.88
2022-12-03T20:14:11.150Z,7.40
2022-12-03T20:16:38.197Z,7.85
2022-12-03T20:19:07.770Z,7.28
2022-12-03T20:21:41.219Z,7.38
2022-12-03T20:24:10.048Z,8.10
2022-12-03T20:26:36.899Z,7.57
2022-12-03T20:29:03.816Z,6.32
2022-12-03T20:31:31.932Z,6.65
2022-12-03T20:34:01.928Z,7.07
2022-12-03T20:36:31.119Z,6.65
2022-12-03T20:39:04.278Z,5.15
2022-12-03T20:41:31.245Z,5.20
2022-12-03T20:43:58.194Z,6.65
2022-12-03T20:46:31.122Z,6.90
2022-12-03T20:48:58.838Z,6.38
2022-12-03T20:51:28.770Z,6.57
2022-12-03T20:53:56.494Z,5.68
2022-12-03T20:56:26.084Z,6.22
2022-12-03T20:58:53.784Z,6.68
2022-12-03T21:01:26.827Z,7.30
2022-12-03T21:03:55.752Z,7.13
2022-12-03T21:06:24.976Z,8.00
2022-12-03T21:08:56.121Z,7.57
2022-12-03T21:11:25.048Z,7.30
2022-12-03T21:13:53.843Z,6.50
2022-12-03T21:16:39.750Z,6.30
2022-12-03T21:19:10.735Z,5.82
2022-12-03T21:21:37.556Z,5.50
2022-12-03T21:24:04.576Z,5.65
2022-12-03T21:26:31.494Z,7.30
2022-12-03T21:28:58.252Z,6.80
2022-12-03T21:31:26.860Z,7.32
2022-12-03T21:33:57.344Z,7.60
2022-12-03T21:36:25.519Z,7.70
2022-12-03T21:38:52.635Z,8.68
2022-12-03T21:41:19.552Z,6.97
2022-12-03T21:43:46.764Z,7.82
2022-12-03T21:47:10.891Z,9.55
2022-12-03T21:49:03.995Z,8.52
2022-12-03T21:51:30.812Z,8.35
2022-12-03T21:53:57.608Z,7.32
2022-12-03T21:56:24.501Z,7.10
2022-12-03T21:58:51.281Z,7.60
2022-12-03T22:01:23.481Z,6.85
2022-12-03T22:03:51.073Z,6.25
2022-12-03T22:06:18.709Z,6.97
2022-12-03T22:08:45.883Z,6.78
2022-12-03T22:11:18.852Z,6.68
2022-12-03T22:13:46.053Z,5.90
2022-12-03T22:16:18.546Z,6.18
2022-12-03T22:18:45.788Z,7.28
2022-12-03T22:21:15.563Z,8.20
2022-12-03T22:23:42.737Z,7.38
2022-12-03T22:26:14.216Z,7.88
2022-12-03T22:28:48.548Z,7.93
2022-12-03T22:31:17.044Z,8.68
2022-12-03T22:33:48.031Z,8.10
2022-12-03T22:36:20.553Z,7.25
2022-12-03T22:38:48.406Z,6.45
2022-12-03T22:41:15.777Z,7.78
2022-12-03T22:43:42.996Z,7.22
2022-12-03T22:46:12.710Z,9.07
2022-12-03T22:48:41.127Z,7.72
2022-12-03T22:51:22.755Z,8.30
2022-12-03T22:53:58.151Z,7.90
2022-12-03T22:56:26.250Z,9.20
2022-12-03T22:58:53.045Z,7.45
2022-12-03T23:01:24.068Z,7.15
2022-12-03T23:03:51.077Z,7.10
2022-12-03T23:06:18.257Z,6.40
2022-12-03T23:08:45.423Z,5.95
2022-12-03T23:11:12.409Z,6.50
2022-12-03T23:13:39.323Z,7.25
2022-12-03T23:16:06.846Z,6.68
2022-12-03T23:18:33.738Z,7.03
2022-12-03T23:21:00.516Z,6.85
2022-12-03T23:23:28.202Z,6.20
2022-12-03T23:25:59.391Z,6.00
2022-12-03T23:28:26.818Z,6.25
2022-12-03T23:30:53.818Z,5.20
2022-12-03T23:33:20.900Z,8.15
2022-12-03T23:35:47.806Z,7.40
2022-12-03T23:38:15.008Z,7.55
2022-12-03T23:40:47.710Z,6.40
2022-12-03T23:43:15.137Z,8.52
2022-12-03T23:45:41.925Z,8.23
2022-12-03T23:48:08.731Z,6.53
2022-12-03T23:50:39.577Z,7.35
2022-12-03T23:53:06.375Z,6.95
2022-12-03T23:55:33.662Z,6.28
2022-12-03T23:58:00.451Z,5.03
